Jacumba, CA (91934)

3:22 AM PDT on August 28, 2015 (GMT -0700)
J-town | | Change Station
CLOSE
Current Station
Personal Weather Station
Location: Jacumba, CA
Elevation: 2799 ft
Nearby Weather Stations

Elev 2799 ft 32.62 °N, 116.19 °W | Updated 36 minutes ago

Clear
Clear
65.8 °F
Feels Like 65.8 °F
N
0.0
Wind Variable Wind from West
Gusts 0.0 mph

Today
High -- | Low -- °F
--% Chance of Precip.
Yesterday
High -- | Low -- °F
Precip. -- in
6:16 AM 7:14 PM
Waxing Gibbous, 97% visible
Pressure 29.89 in
Visibility -9999.0 miles
Clouds
Dew Point 52 °F
Humidity 62%
Rainfall in
Snow Depth Not available.
UV 0.0 out of 12
Pollen 5.10 out of 12
Air Quality Not available.
Flu Activity Not available.
METAR KCZZ 280952Z AUTO 05005KT 19/10 A3000 RMK AO1 SLP120 T01890100 $
Pressure 29.89 in
Visibility -9999.0 miles
Clouds
Dew Point 52 °F
Humidity 62%
Rainfall in
Snow Depth Not available.
UV 0.0 out of 12
Pollen 5.10 out of 12
Air Quality Not available.
Flu Activity Not available.
METAR KCZZ 280952Z AUTO 05005KT 19/10 A3000 RMK AO1 SLP120 T01890100 $

10-Day Weather Forecast

×

Almanac

Astronomy

Aug. 28, 2015 Rise Set
Actual Time
Civil Twilight
Nautical Twilight
Astronomical Twilight
Moon
Length of Visible Light
Length of Day
Tomorrow will be .
, % of the Moon is Illuminated

Today's Extremes

State Highs State Lows

Community

WunderPhotos

Upload Photos

1,850,365 photos uploaded!

WunderBlogs® & News

Nearby

Air Quality

  Air Quality AQ Index Pollutant
Not available.

Snow Depth

Station Depth Elevation

Earthquake Activity

City Distance Mag. Time & Date
Minimum magnitude displayed is 2.5.

Coastal Water Temperatures

Place Temperature

Stations

Nearby Weather Stations

Station Location Temp. Windchill Dew Point Humidity Wind Precip. Elev Updated Type